createdAt,value
2023-01-17T00:02:24.751Z,98433.88
2023-01-17T00:05:10.660Z,98447.94
2023-01-17T00:07:56.312Z,98433.78
2023-01-17T00:10:25.839Z,98432.56
2023-01-17T00:13:03.489Z,98443.97
2023-01-17T00:15:31.447Z,98445.09
2023-01-17T00:17:59.308Z,98436.09
2023-01-17T00:20:47.371Z,98440.69
2023-01-17T00:23:38.761Z,98444.66
2023-01-17T00:26:10.170Z,98450.97
2023-01-17T00:28:39.501Z,98436.25
2023-01-17T00:31:08.258Z,98435.38
2023-01-17T00:33:35.524Z,98442.72
2023-01-17T00:36:02.545Z,98436.38
2023-01-17T00:38:32.219Z,98444.06
2023-01-17T00:41:13.320Z,98455.53
2023-01-17T00:43:59.677Z,98453.94
2023-01-17T00:46:45.392Z,98456.44
2023-01-17T00:49:31.174Z,98466.22
2023-01-17T00:52:16.644Z,98464.97
2023-01-17T00:55:02.682Z,98471.69
2023-01-17T00:57:48.430Z,98468.34
2023-01-17T01:00:35.713Z,98477.00
2023-01-17T01:03:27.632Z,98480.56
2023-01-17T01:06:13.219Z,98474.81
2023-01-17T01:08:58.554Z,98474.09
2023-01-17T01:11:43.804Z,98476.66
2023-01-17T01:14:29.885Z,98495.78
2023-01-17T01:17:15.523Z,98503.56
2023-01-17T01:20:01.117Z,98508.09
2023-01-17T01:22:46.884Z,98528.94
2023-01-17T01:25:32.586Z,98528.38
2023-01-17T01:28:30.442Z,98530.91
2023-01-17T01:31:18.914Z,98528.56
2023-01-17T01:33:46.088Z,98528.06
2023-01-17T01:36:13.232Z,98533.63
2023-01-17T01:38:40.126Z,98530.41
2023-01-17T01:41:07.361Z,98537.53
2023-01-17T01:43:50.533Z,98550.41
2023-01-17T01:46:38.334Z,98552.72
2023-01-17T01:49:17.366Z,98560.19
2023-01-17T01:51:51.532Z,98569.00
2023-01-17T01:54:21.661Z,98572.53
2023-01-17T01:56:49.768Z,98574.56
2023-01-17T01:59:18.656Z,98585.75
2023-01-17T02:01:50.405Z,98587.16
2023-01-17T02:04:18.950Z,98585.06
2023-01-17T02:06:53.639Z,98591.56
2023-01-17T02:09:20.919Z,98593.84
2023-01-17T02:11:49.140Z,98601.03
2023-01-17T02:14:17.279Z,98597.69
2023-01-17T02:16:47.048Z,98594.38
2023-01-17T02:19:33.480Z,98587.50
2023-01-17T02:22:30.900Z,98599.94
2023-01-17T02:25:17.412Z,98601.75
2023-01-17T02:28:04.209Z,98607.03
2023-01-17T02:30:55.825Z,98601.97
2023-01-17T02:33:42.207Z,98600.38
2023-01-17T02:36:11.595Z,98592.28
2023-01-17T02:39:00.719Z,98595.38
2023-01-17T02:41:37.799Z,98600.19
2023-01-17T02:44:05.038Z,98595.78
2023-01-17T02:46:32.002Z,98591.81
2023-01-17T02:49:00.614Z,98594.72
2023-01-17T02:52:07.353Z,98597.31
2023-01-17T02:54:43.722Z,98607.25
2023-01-17T02:57:29.514Z,98610.03
2023-01-17T03:00:14.157Z,98607.72
2023-01-17T03:02:48.300Z,98602.97
2023-01-17T03:05:34.135Z,98605.34
2023-01-17T03:08:02.000Z,98608.59
2023-01-17T03:10:31.815Z,98607.59
2023-01-17T03:12:59.947Z,98617.94
2023-01-17T03:15:27.065Z,98619.28
2023-01-17T03:17:56.395Z,98621.31
2023-01-17T03:20:23.279Z,98618.47
2023-01-17T03:22:50.369Z,98624.34
2023-01-17T03:25:17.808Z,98624.97
2023-01-17T03:27:44.852Z,98634.97
2023-01-17T03:30:12.152Z,98635.25
2023-01-17T03:32:39.049Z,98637.63
2023-01-17T03:35:06.736Z,98639.59
2023-01-17T03:37:33.622Z,98631.09
2023-01-17T03:40:00.624Z,98629.66
2023-01-17T03:42:27.433Z,98626.75
2023-01-17T03:44:54.399Z,98629.31
2023-01-17T03:47:21.349Z,98630.19
2023-01-17T03:49:48.743Z,98638.13
2023-01-17T03:52:15.752Z,98628.59
2023-01-17T03:54:42.735Z,98631.94
2023-01-17T03:57:11.264Z,98642.31
2023-01-17T03:59:38.151Z,98635.34
2023-01-17T04:02:05.223Z,98641.31
2023-01-17T04:04:32.363Z,98642.56
2023-01-17T04:06:59.453Z,98646.44
2023-01-17T04:09:26.379Z,98645.75
2023-01-17T04:11:54.026Z,98647.78
2023-01-17T04:14:21.250Z,98647.59
2023-01-17T04:16:48.660Z,98653.19
2023-01-17T04:19:16.300Z,98653.91
2023-01-17T04:21:43.561Z,98657.63
2023-01-17T04:24:11.062Z,98653.66
2023-01-17T04:26:38.418Z,98656.50
2023-01-17T04:29:05.432Z,98658.63
2023-01-17T04:31:32.816Z,98650.59
2023-01-17T04:34:00.261Z,98649.09
2023-01-17T04:36:27.679Z,98646.25
2023-01-17T04:38:54.704Z,98656.69
2023-01-17T04:41:22.079Z,98650.59
2023-01-17T04:43:49.402Z,98657.31
2023-01-17T04:46:16.812Z,98657.31
2023-01-17T04:48:44.003Z,98651.34
2023-01-17T04:51:11.538Z,98653.16
2023-01-17T04:53:38.700Z,98648.22
2023-01-17T04:56:06.481Z,98654.94
2023-01-17T04:58:34.020Z,98647.53
2023-01-17T05:01:04.390Z,98652.28
2023-01-17T05:03:32.599Z,98648.56
2023-01-17T05:06:00.597Z,98665.03
2023-01-17T05:08:28.689Z,98659.69
2023-01-17T05:10:56.120Z,98662.38
2023-01-17T05:13:23.286Z,98655.22
2023-01-17T05:15:50.855Z,98664.72
2023-01-17T05:18:18.939Z,98659.00
2023-01-17T05:20:46.619Z,98659.50
2023-01-17T05:23:13.551Z,98662.09
2023-01-17T05:25:44.588Z,98666.59
2023-01-17T05:28:14.763Z,98662.69
2023-01-17T05:30:42.461Z,98671.19
2023-01-17T05:33:10.898Z,98683.63
2023-01-17T05:35:38.992Z,98679.81
2023-01-17T05:38:06.321Z,98690.63
2023-01-17T05:40:34.500Z,98695.84
2023-01-17T05:43:03.519Z,98695.13
2023-01-17T05:45:32.882Z,98704.50
2023-01-17T05:48:00.401Z,98701.22
2023-01-17T05:50:30.323Z,98704.22
2023-01-17T05:52:59.839Z,98705.22
2023-01-17T05:55:28.270Z,98701.47
2023-01-17T05:57:56.480Z,98709.00
2023-01-17T06:00:23.842Z,98710.78
2023-01-17T06:02:54.343Z,98702.34
2023-01-17T06:05:22.558Z,98711.53
2023-01-17T06:07:50.230Z,98714.00
2023-01-17T06:10:19.088Z,98705.09
2023-01-17T06:12:46.661Z,98708.53
2023-01-17T06:15:15.538Z,98710.38
2023-01-17T06:17:42.659Z,98712.13
2023-01-17T06:20:11.953Z,98710.69
2023-01-17T06:22:39.367Z,98712.53
2023-01-17T06:25:07.705Z,98715.50
2023-01-17T06:27:34.622Z,98711.69
2023-01-17T06:30:01.893Z,98717.66
2023-01-17T06:32:29.029Z,98722.34
2023-01-17T06:34:56.343Z,98721.78
2023-01-17T06:37:23.722Z,98725.88
2023-01-17T06:39:51.059Z,98725.28
2023-01-17T06:42:18.513Z,98716.75
2023-01-17T06:44:45.579Z,98727.72
2023-01-17T06:47:12.952Z,98728.06
2023-01-17T06:49:40.260Z,98726.28
2023-01-17T06:52:08.119Z,98728.81
2023-01-17T06:54:35.600Z,98733.72
2023-01-17T06:57:02.901Z,98728.13
2023-01-17T06:59:30.420Z,98728.06
2023-01-17T07:01:57.530Z,98730.28
2023-01-17T07:04:24.630Z,98735.88
2023-01-17T07:06:52.072Z,98731.94
2023-01-17T07:09:19.463Z,98739.78
2023-01-17T07:11:46.748Z,98738.56
2023-01-17T07:14:14.899Z,98741.81
2023-01-17T07:16:45.348Z,98741.91
2023-01-17T07:19:13.039Z,98741.38
2023-01-17T07:21:40.701Z,98744.00
2023-01-17T07:24:09.446Z,98755.44
2023-01-17T07:26:38.325Z,98750.09
2023-01-17T07:29:05.639Z,98748.03
2023-01-17T07:31:35.469Z,98750.97
2023-01-17T07:34:03.440Z,98759.56
2023-01-17T07:36:30.306Z,98752.69
2023-01-17T07:38:56.894Z,98759.91
2023-01-17T07:41:24.315Z,98751.28
2023-01-17T07:43:51.660Z,98759.25
2023-01-17T07:46:19.219Z,98760.50
2023-01-17T07:48:46.763Z,98755.19
2023-01-17T07:51:14.319Z,98750.41
2023-01-17T07:53:41.561Z,98745.94
2023-01-17T07:56:08.962Z,98743.31
2023-01-17T07:58:36.866Z,98747.00
2023-01-17T08:01:09.401Z,98739.81
2023-01-17T08:03:40.221Z,98740.22
2023-01-17T08:06:20.189Z,98738.31
2023-01-17T08:08:47.648Z,98741.63
2023-01-17T08:11:15.509Z,98737.72
2023-01-17T08:13:42.453Z,98740.44
2023-01-17T08:16:12.393Z,98748.09
2023-01-17T08:18:39.837Z,98741.47
2023-01-17T08:21:13.732Z,98747.88
2023-01-17T08:23:40.707Z,98758.06
2023-01-17T08:26:07.378Z,98756.94
2023-01-17T08:28:34.747Z,98763.31
2023-01-17T08:31:11.133Z,98761.22
2023-01-17T08:33:38.671Z,98762.59
2023-01-17T08:36:06.476Z,98771.03
2023-01-17T08:38:33.837Z,98762.22
2023-01-17T08:41:01.842Z,98770.06
2023-01-17T08:43:29.262Z,98768.03
2023-01-17T08:45:56.662Z,98774.06
2023-01-17T08:48:24.656Z,98769.41
2023-01-17T08:50:52.490Z,98775.00
2023-01-17T08:53:21.889Z,98770.41
2023-01-17T08:55:48.854Z,98779.81
2023-01-17T08:58:16.140Z,98782.19
2023-01-17T09:00:43.720Z,98781.25
2023-01-17T09:03:14.566Z,98781.06
2023-01-17T09:05:42.135Z,98783.91
2023-01-17T09:08:09.417Z,98789.28
2023-01-17T09:10:36.975Z,98790.75
2023-01-17T09:13:07.288Z,98792.41
2023-01-17T09:15:34.249Z,98797.19
2023-01-17T09:18:01.993Z,98796.72
2023-01-17T09:20:31.107Z,98799.56
2023-01-17T09:22:58.272Z,98791.94
2023-01-17T09:25:26.245Z,98797.00
2023-01-17T09:27:53.491Z,98800.44
2023-01-17T09:30:21.268Z,98803.47
2023-01-17T09:32:55.749Z,98802.69
2023-01-17T09:35:23.147Z,98801.28
2023-01-17T09:37:51.184Z,98806.69
2023-01-17T09:40:21.268Z,98812.28
2023-01-17T09:42:51.063Z,98817.31
2023-01-17T09:45:19.074Z,98818.47
2023-01-17T09:47:54.255Z,98824.16
2023-01-17T09:50:34.011Z,98824.34
2023-01-17T09:53:16.345Z,98831.25
2023-01-17T09:55:49.016Z,98830.25
2023-01-17T09:58:54.688Z,98831.84
2023-01-17T10:01:24.741Z,98832.81
2023-01-17T10:03:58.566Z,98835.06
2023-01-17T10:06:54.189Z,98845.59
2023-01-17T10:09:42.571Z,98836.78
2023-01-17T10:12:25.478Z,98844.50
2023-01-17T10:15:03.367Z,98842.25
2023-01-17T10:17:42.246Z,98845.75
2023-01-17T10:20:34.315Z,98838.88
2023-01-17T10:23:08.020Z,98846.31
2023-01-17T10:25:43.079Z,98846.84
2023-01-17T10:28:16.956Z,98856.91
2023-01-17T10:31:03.996Z,98853.75
2023-01-17T10:33:49.889Z,98852.59
2023-01-17T10:36:29.627Z,98850.59
2023-01-17T10:39:02.562Z,98851.66
2023-01-17T10:41:30.351Z,98857.25
2023-01-17T10:43:57.358Z,98854.91
2023-01-17T10:46:48.877Z,98843.16
2023-01-17T10:49:22.879Z,98847.19
2023-01-17T10:52:08.936Z,98848.22
2023-01-17T10:54:41.374Z,98844.13
2023-01-17T10:57:22.832Z,98839.94
2023-01-17T10:59:51.338Z,98835.72
2023-01-17T11:02:31.318Z,98839.97
2023-01-17T11:05:03.872Z,98831.91
2023-01-17T11:07:31.790Z,98839.56
2023-01-17T11:09:59.731Z,98826.06
2023-01-17T11:12:31.366Z,98835.69
2023-01-17T11:15:01.745Z,98829.06
2023-01-17T11:17:29.961Z,98840.59
2023-01-17T11:20:09.929Z,98836.09
2023-01-17T11:22:37.832Z,98829.81
2023-01-17T11:25:06.033Z,98836.03
2023-01-17T11:27:35.356Z,98831.84
2023-01-17T11:30:20.488Z,98827.31
2023-01-17T11:32:55.546Z,98828.44
2023-01-17T11:35:31.903Z,98831.66
2023-01-17T11:38:03.951Z,98822.16
2023-01-17T11:40:39.120Z,98815.59
2023-01-17T11:43:27.314Z,98819.72
2023-01-17T11:46:16.075Z,98810.34
2023-01-17T11:49:07.400Z,98811.50
2023-01-17T11:51:40.230Z,98812.50
2023-01-17T11:54:07.616Z,98809.72
2023-01-17T11:56:36.944Z,98806.00
2023-01-17T11:59:20.071Z,98807.47
2023-01-17T12:02:13.229Z,98803.81
2023-01-17T12:04:47.630Z,98801.75
2023-01-17T12:07:40.078Z,98795.91
2023-01-17T12:10:18.707Z,98796.03
2023-01-17T12:13:18.361Z,98796.09
2023-01-17T12:16:33.285Z,98807.81
2023-01-17T12:19:12.510Z,98805.59
2023-01-17T12:22:05.281Z,98799.19
2023-01-17T12:25:01.999Z,98799.88
2023-01-17T12:27:42.759Z,98802.22
2023-01-17T12:30:38.479Z,98790.00
2023-01-17T12:33:28.099Z,98796.97
2023-01-17T12:35:59.390Z,98798.31
2023-01-17T12:38:33.373Z,98800.38
2023-01-17T12:41:12.365Z,98786.13
2023-01-17T12:43:44.329Z,98784.28
2023-01-17T12:46:32.076Z,98787.28
2023-01-17T12:49:32.569Z,98786.59
2023-01-17T12:52:05.874Z,98784.06
2023-01-17T12:54:40.467Z,98789.00
2023-01-17T12:57:22.546Z,98789.09
2023-01-17T13:00:11.163Z,98787.69
2023-01-17T13:02:52.037Z,98799.06
2023-01-17T13:05:37.108Z,98783.50
2023-01-17T13:08:25.610Z,98794.91
2023-01-17T13:11:28.133Z,98795.50
2023-01-17T13:13:57.806Z,98801.31
2023-01-17T13:16:30.699Z,98800.06
2023-01-17T13:19:22.690Z,98803.66
2023-01-17T13:21:50.998Z,98799.28
2023-01-17T13:24:31.582Z,98794.13
2023-01-17T13:27:27.582Z,98789.88
2023-01-17T13:30:01.408Z,98802.13
2023-01-17T13:33:12.756Z,98800.50
2023-01-17T13:35:46.760Z,98806.75
2023-01-17T13:38:37.858Z,98803.06
2023-01-17T13:41:17.847Z,98795.56
2023-01-17T13:44:05.858Z,98795.06
2023-01-17T13:46:59.845Z,98806.47
2023-01-17T13:49:30.630Z,98807.09
2023-01-17T13:52:11.023Z,98811.50
2023-01-17T13:54:57.887Z,98816.88
2023-01-17T13:57:30.242Z,98821.16
2023-01-17T13:59:59.309Z,98814.53
2023-01-17T14:02:32.232Z,98821.59
2023-01-17T14:05:38.294Z,98822.25
2023-01-17T14:08:14.373Z,98824.56
2023-01-17T14:10:47.764Z,98825.00
2023-01-17T14:13:34.948Z,98827.56
2023-01-17T14:16:07.270Z,98828.28
2023-01-17T14:18:38.757Z,98820.41
2023-01-17T14:21:11.585Z,98823.59
2023-01-17T14:24:10.960Z,98831.06
2023-01-17T14:26:54.959Z,98830.34
2023-01-17T14:29:41.190Z,98832.84
2023-01-17T14:32:17.136Z,98824.84
2023-01-17T14:34:47.090Z,98828.94
2023-01-17T14:37:19.272Z,98826.13
2023-01-17T14:39:48.227Z,98829.19
2023-01-17T14:42:18.168Z,98833.00
2023-01-17T14:44:47.517Z,98838.47
2023-01-17T14:47:15.474Z,98846.59
2023-01-17T14:49:43.288Z,98845.50
2023-01-17T14:52:16.544Z,98853.72
2023-01-17T14:54:53.311Z,98850.47
2023-01-17T14:57:29.066Z,98853.41
2023-01-17T15:00:19.448Z,98857.63
2023-01-17T15:02:48.390Z,98859.22
2023-01-17T15:05:19.919Z,98852.91
2023-01-17T15:07:53.196Z,98861.03
2023-01-17T15:10:25.989Z,98867.50
2023-01-17T15:12:53.525Z,98860.50
2023-01-17T15:15:30.648Z,98862.72
2023-01-17T15:18:19.990Z,98857.41
2023-01-17T15:21:01.034Z,98869.63
2023-01-17T15:23:34.737Z,98863.34
2023-01-17T15:26:04.229Z,98860.16
2023-01-17T15:28:33.068Z,98865.28
2023-01-17T15:31:38.288Z,98868.31
2023-01-17T15:34:13.708Z,98858.25
2023-01-17T15:36:41.099Z,98869.91
2023-01-17T15:39:19.674Z,98870.34
2023-01-17T15:41:48.449Z,98867.97
2023-01-17T15:44:42.615Z,98874.00
2023-01-17T15:47:39.022Z,98876.50
2023-01-17T15:50:25.818Z,98875.00
2023-01-17T15:53:01.509Z,98876.16
2023-01-17T15:55:32.775Z,98874.72
2023-01-17T15:58:00.478Z,98873.50
2023-01-17T16:00:38.415Z,98878.34
2023-01-17T16:03:26.429Z,98876.16
2023-01-17T16:05:55.432Z,98874.56
2023-01-17T16:08:27.579Z,98879.16
2023-01-17T16:10:59.777Z,98887.34
2023-01-17T16:13:27.231Z,98882.16
2023-01-17T16:15:54.603Z,98887.13
2023-01-17T16:18:26.911Z,98892.19
2023-01-17T16:21:01.267Z,98891.88
2023-01-17T16:23:28.810Z,98892.06
2023-01-17T16:25:55.960Z,98894.00
2023-01-17T16:28:23.387Z,98888.34
2023-01-17T16:30:50.291Z,98903.22
2023-01-17T16:33:17.837Z,98895.56
2023-01-17T16:35:45.217Z,98906.03
2023-01-17T16:38:20.150Z,98910.59
2023-01-17T16:40:48.300Z,98916.47
2023-01-17T16:43:17.612Z,98915.00
2023-01-17T16:45:50.737Z,98915.22
2023-01-17T16:48:19.281Z,98915.78
2023-01-17T16:50:50.765Z,98919.66
2023-01-17T16:53:25.774Z,98915.00
2023-01-17T16:55:56.127Z,98927.25
2023-01-17T16:58:23.616Z,98927.41
2023-01-17T17:00:51.028Z,98928.28
2023-01-17T17:03:20.649Z,98929.66
2023-01-17T17:05:59.213Z,98929.34
2023-01-17T17:08:28.908Z,98931.06
2023-01-17T17:11:06.387Z,98934.84
2023-01-17T17:13:36.338Z,98934.97
2023-01-17T17:16:10.735Z,98932.03
2023-01-17T17:18:38.184Z,98931.47
2023-01-17T17:21:05.350Z,98935.19
2023-01-17T17:23:32.629Z,98934.41
2023-01-17T17:25:59.806Z,98942.41
2023-01-17T17:28:27.129Z,98943.44
2023-01-17T17:31:10.519Z,98940.34
2023-01-17T17:33:39.016Z,98947.66
2023-01-17T17:36:08.209Z,98951.06
2023-01-17T17:38:35.616Z,98948.44
2023-01-17T17:41:07.875Z,98950.16
2023-01-17T17:43:41.907Z,98958.88
2023-01-17T17:46:09.215Z,98955.66
2023-01-17T17:48:37.357Z,98959.44
2023-01-17T17:51:04.896Z,98965.00
2023-01-17T17:53:32.482Z,98965.69
2023-01-17T17:56:04.760Z,98977.53
2023-01-17T17:58:34.581Z,98975.16
2023-01-17T18:01:03.097Z,98974.69
2023-01-17T18:03:31.224Z,98976.25
2023-01-17T18:06:03.153Z,98980.19
2023-01-17T18:08:34.217Z,98983.56
2023-01-17T18:11:04.187Z,98991.47
2023-01-17T18:13:32.985Z,98996.81
2023-01-17T18:16:08.740Z,98985.88
2023-01-17T18:18:37.890Z,98992.59
2023-01-17T18:21:12.767Z,98993.88
2023-01-17T18:23:42.289Z,99001.53
2023-01-17T18:26:23.837Z,98998.38
2023-01-17T18:28:53.470Z,99006.50
2023-01-17T18:31:22.356Z,99007.47
2023-01-17T18:33:49.852Z,99016.88
2023-01-17T18:36:16.937Z,99011.47
2023-01-17T18:38:46.714Z,99018.75
2023-01-17T18:41:17.156Z,99009.44
2023-01-17T18:43:44.426Z,99021.06
2023-01-17T18:46:13.008Z,99024.19
2023-01-17T18:48:41.693Z,99032.91
2023-01-17T18:51:13.627Z,99030.91
2023-01-17T18:53:46.406Z,99033.66
2023-01-17T18:56:16.497Z,99038.31
2023-01-17T18:58:46.369Z,99030.50
2023-01-17T19:01:16.053Z,99033.03
2023-01-17T19:03:45.343Z,99033.84
2023-01-17T19:06:15.826Z,99036.75
2023-01-17T19:08:43.255Z,99037.88
2023-01-17T19:11:10.985Z,99039.28
2023-01-17T19:13:40.760Z,99044.19
2023-01-17T19:16:11.931Z,99046.88
2023-01-17T19:18:39.195Z,99046.59
2023-01-17T19:21:12.159Z,99047.38
2023-01-17T19:23:39.908Z,99050.75
2023-01-17T19:26:11.377Z,99058.28
2023-01-17T19:28:40.867Z,99059.34
2023-01-17T19:31:11.027Z,99061.56
2023-01-17T19:33:39.683Z,99056.38
2023-01-17T19:36:13.838Z,99060.38
2023-01-17T19:38:41.923Z,99068.53
2023-01-17T19:41:18.338Z,99071.16
2023-01-17T19:43:45.794Z,99072.34
2023-01-17T19:46:13.096Z,99071.25
2023-01-17T19:48:40.526Z,99066.97
2023-01-17T19:51:13.613Z,99069.22
2023-01-17T19:53:41.228Z,99075.31
2023-01-17T19:56:17.517Z,99069.88
2023-01-17T19:58:46.319Z,99075.72
2023-01-17T20:01:15.978Z,99077.75
2023-01-17T20:03:47.089Z,99080.44
2023-01-17T20:06:16.642Z,99081.53
2023-01-17T20:08:45.087Z,99078.63
2023-01-17T20:11:17.931Z,99080.75
2023-01-17T20:13:46.848Z,99083.75
2023-01-17T20:16:15.601Z,99085.22
2023-01-17T20:18:43.397Z,99087.16
2023-01-17T20:21:13.561Z,99085.56
2023-01-17T20:23:43.231Z,99088.31
2023-01-17T20:26:19.557Z,99091.66
2023-01-17T20:28:49.220Z,99097.69
2023-01-17T20:31:19.432Z,99089.91
2023-01-17T20:33:47.957Z,99086.84
2023-01-17T20:36:16.440Z,99089.84
2023-01-17T20:38:44.366Z,99087.66
2023-01-17T20:41:11.347Z,99094.09
2023-01-17T20:43:38.903Z,99095.72
2023-01-17T20:46:06.810Z,99092.78
2023-01-17T20:48:34.210Z,99103.31
2023-01-17T20:51:07.029Z,99101.03
2023-01-17T20:53:35.324Z,99104.41
2023-01-17T20:56:03.047Z,99104.47
2023-01-17T20:58:34.448Z,99105.94
2023-01-17T21:01:01.788Z,99113.16
2023-01-17T21:03:29.491Z,99114.59
2023-01-17T21:06:04.881Z,99117.13
2023-01-17T21:08:34.117Z,99117.56
2023-01-17T21:11:01.797Z,99117.19
2023-01-17T21:13:29.092Z,99120.09
2023-01-17T21:15:56.267Z,99124.94
2023-01-17T21:18:24.432Z,99118.16
2023-01-17T21:20:52.132Z,99122.16
2023-01-17T21:23:20.313Z,99127.47
2023-01-17T21:25:59.896Z,99127.88
2023-01-17T21:28:29.476Z,99125.34
2023-01-17T21:30:57.083Z,99124.53
2023-01-17T21:33:25.622Z,99127.88
2023-01-17T21:35:53.260Z,99125.94
2023-01-17T21:38:20.775Z,99133.53
2023-01-17T21:40:48.619Z,99118.81
2023-01-17T21:43:15.790Z,99122.81
2023-01-17T21:45:43.751Z,99130.16
2023-01-17T21:48:14.807Z,99129.34
2023-01-17T21:50:42.272Z,99130.16
2023-01-17T21:53:10.397Z,99134.75
2023-01-17T21:55:57.086Z,99132.34
2023-01-17T21:58:43.569Z,99132.81
2023-01-17T22:01:22.666Z,99135.53
2023-01-17T22:03:55.494Z,99141.34
2023-01-17T22:06:26.300Z,99143.03
2023-01-17T22:08:53.576Z,99138.34
2023-01-17T22:11:23.467Z,99146.69
2023-01-17T22:13:50.580Z,99145.88
2023-01-17T22:16:21.769Z,99147.34
2023-01-17T22:18:49.766Z,99148.19
2023-01-17T22:21:20.366Z,99144.06
2023-01-17T22:23:57.088Z,99154.22
2023-01-17T22:26:27.366Z,99146.25
2023-01-17T22:28:55.098Z,99156.03
2023-01-17T22:31:24.930Z,99154.56
2023-01-17T22:34:02.392Z,99154.16
2023-01-17T22:36:32.085Z,99155.81
2023-01-17T22:39:00.142Z,99159.19
2023-01-17T22:41:30.057Z,99152.03
2023-01-17T22:43:59.527Z,99160.00
2023-01-17T22:46:29.018Z,99155.97
2023-01-17T22:48:57.710Z,99152.66
2023-01-17T22:51:26.612Z,99154.88
2023-01-17T22:53:56.554Z,99153.28
2023-01-17T22:56:26.901Z,99152.66
2023-01-17T22:58:54.587Z,99154.94
2023-01-17T23:01:24.442Z,99150.16
2023-01-17T23:03:57.249Z,99154.81
2023-01-17T23:06:30.958Z,99158.63
2023-01-17T23:09:00.989Z,99163.09
2023-01-17T23:11:39.817Z,99164.47
2023-01-17T23:14:09.900Z,99166.69
2023-01-17T23:16:56.739Z,99159.56
2023-01-17T23:19:25.081Z,99157.59
2023-01-17T23:22:14.019Z,99159.50
2023-01-17T23:25:02.207Z,99152.88
2023-01-17T23:27:52.326Z,99160.13
2023-01-17T23:30:25.408Z,99157.28
2023-01-17T23:32:53.497Z,99162.56
2023-01-17T23:35:23.766Z,99167.50
2023-01-17T23:38:09.599Z,99166.25
2023-01-17T23:40:38.079Z,99157.22
2023-01-17T23:43:24.127Z,99153.16
2023-01-17T23:45:52.747Z,99154.19
2023-01-17T23:48:20.913Z,99151.31
2023-01-17T23:50:48.839Z,99156.06
2023-01-17T23:53:23.407Z,99161.94
2023-01-17T23:55:52.981Z,99164.53
2023-01-17T23:58:22.908Z,99167.59
